PAFR METAR and TAF weather

Enter ICAO airport designator
Station Type Date Time Source
PAFR METAR 2022/11/30 17:55 UTC NOAA

PAFR 301755Z AUTO 00000KT 10SM OVC160 M15/M18 A3032 RMK AO2 SLP285 T11551176 11155 21216 57017 VISNO RWY35 CHINO RWY35 $


Station Type Date Time Source
PAFR Decoded METAR 2022/11/30 17:55 UTC NOAA

Ft. Richardson / Bryant U. S. Army Heliport, Ak, AK, United States (PAFR) 61-16N 149-39W 115M
Nov 30, 2022 - 12:55 PM EST / 2022.11.30 1755 UTC
Wind: Calm:0
Visibility: 10 mile(s):0
Sky conditions: overcast
Temperature: 4.1 F (-15.5 C)
Dew Point: 0.3 F (-17.6 C)
Relative Humidity: 83%
Pressure (altimeter): 30.32 in. Hg (1026 hPa)
Pressure tendency: 0.05 inches (1.7 hPa) lower than three hours ago
ob: PAFR 301755Z AUTO 00000KT 10SM OVC160 M15/M18 A3032 RMK AO2 SLP285 T11551176 11155 21216 57017 VISNO RWY35 CHINO RWY35
cycle: 18

Station Type Date Time Source
PAFR TAF UTC NOAA

Error!

Example: see airport list